Time;durP1;ratioP1;P1;durP2;ratioP2;P2;SDS_P1;SDS_P2;PMS_P1;PMS_P2;Temp;Humidity;BMP_temperature;BMP_pressure;BME280_temperature;BME280_humidity;BME280_pressure;Samples;Min_cycle;Max_cycle;Signal;HPM_P1;HPM_P2
2021/04/06 00:02:21;;;;;;;0.30;0.30;;;;;;;2.95;69.52;92647.00;5077763;28;20101;-45
2021/04/06 00:04:49;;;;;;;0.38;0.38;;;;;;;2.90;69.79;92662.19;5080048;28;20020;-44
2021/04/06 00:07:16;;;;;;;0.40;0.40;;;;;;;2.93;69.83;92652.22;5077765;28;20028;-44
2021/04/06 00:09:43;;;;;;;0.40;0.40;;;;;;;2.91;69.74;92644.56;5078822;28;20028;-45
2021/04/06 00:12:09;;;;;;;0.40;0.40;;;;;;;2.95;68.92;92642.28;5083195;28;20051;-46
2021/04/06 00:14:36;;;;;;;0.40;0.40;;;;;;;2.88;69.55;92637.44;5090379;28;20488;-44
2021/04/06 00:17:06;;;;;;;1.17;1.05;;;;;;;2.80;69.71;92614.03;5090679;28;20028;-45
2021/04/06 00:19:33;;;;;;;0.52;0.52;;;;;;;2.75;70.52;92625.75;5090272;28;20052;-45
2021/04/06 00:22:01;;;;;;;0.43;0.43;;;;;;;2.81;69.73;92635.31;5089733;28;20073;-44
2021/04/06 00:24:29;;;;;;;1.50;1.15;;;;;;;2.84;68.78;92623.38;5079563;28;20036;-44
2021/04/06 00:27:12;;;;;;;1.00;1.00;;;;;;;2.72;69.72;92610.44;5078334;28;20028;-45
2021/04/06 00:29:40;;;;;;;0.90;0.90;;;;;;;2.57;70.92;92602.72;5079273;28;20559;-44
2021/04/06 00:32:07;;;;;;;3.83;2.13;;;;;;;2.58;70.62;92598.72;5079985;28;20106;-47
2021/04/06 00:34:34;;;;;;;1.00;0.77;;;;;;;2.63;69.72;92597.94;5078476;28;20039;-45
2021/04/06 00:37:04;;;;;;;0.93;0.85;;;;;;;2.73;69.76;92584.66;5075577;28;20565;-44
2021/04/06 00:39:34;;;;;;;0.40;0.40;;;;;;;2.78;69.32;92595.47;5075745;28;20039;-44
2021/04/06 00:42:04;;;;;;;0.30;0.30;;;;;;;2.81;69.28;92578.09;5091007;28;20016;-46
2021/04/06 00:44:30;;;;;;;0.20;0.20;;;;;;;2.88;70.19;92590.38;5088639;28;20082;-45
2021/04/06 00:46:57;;;;;;;0.63;0.60;;;;;;;2.89;69.49;92586.38;5089590;28;20115;-44
2021/04/06 00:49:23;;;;;;;1.65;1.08;;;;;;;2.86;69.65;92585.41;5089660;28;20059;-43
2021/04/06 00:51:51;;;;;;;0.50;0.50;;;;;;;2.81;70.03;92572.63;5089922;28;20108;-44
2021/04/06 00:54:17;;;;;;;0.90;0.90;;;;;;;2.80;69.48;92575.84;5090702;28;20561;-44
2021/04/06 00:56:43;;;;;;;1.60;1.50;;;;;;;2.76;69.21;92572.69;5090121;28;20027;-45
2021/04/06 00:59:10;;;;;;;1.02;1.02;;;;;;;2.80;68.69;92568.41;5089907;28;20027;-45
2021/04/06 01:01:45;;;;;;;0.30;0.30;;;;;;;2.84;69.35;92579.00;5090754;28;20081;-45
2021/04/06 01:04:15;;;;;;;1.95;1.17;;;;;;;2.73;69.82;92568.31;5090678;28;20032;-43
2021/04/06 01:07:09;;;;;;;2.22;2.05;;;;;;;2.57;69.95;92559.13;5090232;28;20040;-44
2021/04/06 01:09:46;;;;;;;0.50;0.50;;;;;;;2.53;70.64;92553.25;5073531;28;20028;-45
2021/04/06 01:12:17;;;;;;;0.50;0.50;;;;;;;2.44;71.08;92559.09;5070632;28;20551;-46
2021/04/06 01:14:44;;;;;;;0.40;0.40;;;;;;;2.32;71.50;92544.13;5070633;28;20448;-44
2021/04/06 01:17:15;;;;;;;0.60;0.60;;;;;;;2.38;71.71;92552.25;5070562;28;20029;-43
2021/04/06 01:19:41;;;;;;;0.20;0.20;;;;;;;2.45;71.24;92544.19;5070275;28;20077;-44
2021/04/06 01:22:09;;;;;;;0.40;0.40;;;;;;;2.42;71.65;92542.53;5070241;28;20032;-44
2021/04/06 01:24:35;;;;;;;0.20;0.20;;;;;;;2.49;71.19;92525.56;5070342;28;20032;-44
2021/04/06 01:27:02;;;;;;;0.20;0.20;;;;;;;2.52;71.04;92527.25;5069981;28;20028;-43
2021/04/06 01:29:27;;;;;;;0.43;0.43;;;;;;;2.57;71.81;92526.44;5069850;28;20489;-43
2021/04/06 01:31:53;;;;;;;0.30;0.30;;;;;;;2.53;71.62;92531.47;5070159;28;20017;-43
2021/04/06 01:34:19;;;;;;;0.32;0.32;;;;;;;2.48;71.44;92515.91;5068283;28;20086;-43
2021/04/06 01:36:50;;;;;;;1.42;1.13;;;;;;;2.49;72.05;92531.00;5069784;28;20082;-43
2021/04/06 01:39:16;;;;;;;0.25;0.22;;;;;;;2.48;72.21;92532.28;5069733;28;20509;-43
2021/04/06 01:41:45;;;;;;;0.50;0.50;;;;;;;2.28;71.92;92511.75;5081545;28;20028;-44
2021/04/06 01:44:11;;;;;;;;;;;;;;;2.43;71.81;92524.16;5088577;28;20066;-43
2021/04/06 01:46:46;;;;;;;0.35;0.35;;;;;;;2.46;71.63;92529.34;5069974;28;19940;-46
2021/04/06 01:49:18;;;;;;;0.30;0.30;;;;;;;2.49;71.25;92531.00;5075169;28;20051;-46
2021/04/06 01:51:45;;;;;;;0.30;0.30;;;;;;;2.56;71.81;92527.69;5076084;28;20481;-44
2021/04/06 01:54:13;;;;;;;10.43;0.93;;;;;;;2.66;71.90;92520.59;5077731;28;20028;-43
2021/04/06 01:57:09;;;;;;;0.40;0.40;;;;;;;2.63;71.78;92521.63;5077930;28;20162;-45
2021/04/06 01:59:40;;;;;;;0.40;0.40;;;;;;;2.49;71.61;92503.75;5078653;28;20085;-44
2021/04/06 02:02:08;;;;;;;0.52;0.52;;;;;;;2.37;71.96;92502.47;5077622;28;20031;-44
2021/04/06 02:04:33;;;;;;;0.40;0.40;;;;;;;2.52;71.82;92513.63;5077320;28;20062;-44
2021/04/06 02:07:00;;;;;;;1.10;1.10;;;;;;;2.43;72.51;92505.09;5078010;28;20173;-45
2021/04/06 02:09:26;;;;;;;0.68;0.68;;;;;;;2.51;71.78;92506.72;5076659;28;20104;-44
2021/04/06 02:11:52;;;;;;;1.20;0.85;;;;;;;2.46;71.46;92504.81;5071240;28;20147;-43
2021/04/06 02:14:22;;;;;;;0.28;0.28;;;;;;;2.51;71.83;92503.25;5069382;28;20495;-44
2021/04/06 02:17:00;;;;;;;0.63;0.63;;;;;;;2.37;72.28;92499.75;5071418;28;20098;-44
2021/04/06 02:19:33;;;;;;;0.73;0.73;;;;;;;2.51;71.89;92493.09;5073950;28;20043;-44
2021/04/06 02:22:04;;;;;;;0.30;0.30;;;;;;;2.46;72.71;92502.09;5073443;28;20031;-44
2021/04/06 02:24:41;;;;;;;0.50;0.50;;;;;;;2.32;73.31;92502.56;5073652;28;20115;-44
2021/04/06 02:27:15;;;;;;;0.77;0.73;;;;;;;2.21;72.86;92495.28;5073653;28;20039;-45
2021/04/06 02:29:48;;;;;;;0.30;0.30;;;;;;;2.04;73.83;92492.81;5073550;28;20531;-44
2021/04/06 02:32:22;;;;;;;1.17;1.10;;;;;;;2.00;74.44;92494.34;5073908;28;20027;-43
2021/04/06 02:34:50;;;;;;;0.40;0.40;;;;;;;2.00;74.35;92486.19;5073630;28;20029;-46
2021/04/06 02:37:20;;;;;;;0.30;0.30;;;;;;;1.99;74.14;92476.56;5079367;28;20093;-45
2021/04/06 02:39:47;;;;;;;0.20;0.20;;;;;;;1.98;74.08;92472.38;5093400;28;20577;-45
2021/04/06 02:42:19;;;;;;;0.77;0.77;;;;;;;1.92;74.81;92474.44;5093297;28;20518;-43
2021/04/06 02:44:45;;;;;;;0.40;0.40;;;;;;;1.92;74.48;92469.00;5086512;28;20504;-44
2021/04/06 02:47:11;;;;;;;0.45;0.45;;;;;;;1.78;75.09;92460.03;5072134;28;20028;-44
2021/04/06 02:49:36;;;;;;;0.30;0.30;;;;;;;1.80;75.47;92467.69;5072897;28;20024;-43
2021/04/06 02:52:03;;;;;;;0.30;0.30;;;;;;;1.79;75.37;92466.94;5073137;28;20022;-44
2021/04/06 02:54:28;;;;;;;0.70;0.70;;;;;;;1.82;75.05;92467.91;5073102;28;20119;-43
2021/04/06 02:56:54;;;;;;;0.30;0.30;;;;;;;1.72;75.95;92464.06;5071891;28;20095;-43
2021/04/06 02:59:20;;;;;;;0.30;0.30;;;;;;;1.81;76.07;92458.25;5071409;28;20135;-44
2021/04/06 03:01:48;;;;;;;0.30;0.30;;;;;;;1.80;76.34;92473.13;5072620;28;20113;-45
2021/04/06 03:04:17;;;;;;;4.93;1.73;;;;;;;1.94;75.80;92469.22;5072894;28;20623;-44
2021/04/06 03:06:42;;;;;;;1.60;0.80;;;;;;;1.91;75.39;92467.50;5072976;28;20103;-43
2021/04/06 03:09:12;;;;;;;1.23;1.15;;;;;;;1.94;74.82;92471.94;5072468;28;20167;-44
2021/04/06 03:11:42;;;;;;;0.75;0.75;;;;;;;1.84;75.28;92477.00;5072288;28;20040;-44
2021/04/06 03:14:07;;;;;;;1.00;0.95;;;;;;;1.88;75.13;92476.72;5072265;28;20047;-44
2021/04/06 03:16:33;;;;;;;0.30;0.30;;;;;;;1.91;75.25;92481.84;5071532;28;20033;-43
2021/04/06 03:19:03;;;;;;;0.52;0.52;;;;;;;1.82;75.31;92476.78;5072323;28;20024;-43
2021/04/06 03:21:29;;;;;;;0.30;0.30;;;;;;;1.80;75.40;92465.69;5072202;28;20035;-42
2021/04/06 03:23:54;;;;;;;0.30;0.30;;;;;;;1.93;74.92;92475.91;5072256;28;20032;-43
2021/04/06 03:26:22;;;;;;;0.52;0.52;;;;;;;2.05;74.41;92471.78;5071125;28;20032;-42
2021/04/06 03:28:48;;;;;;;0.67;0.63;;;;;;;1.87;74.37;92467.81;5071429;28;20032;-42
2021/04/06 03:31:18;;;;;;;0.50;0.50;;;;;;;1.87;74.61;92473.25;5070973;28;20082;-43
2021/04/06 03:33:48;;;;;;;0.38;0.38;;;;;;;1.89;74.58;92472.75;5078613;28;20599;-42
2021/04/06 03:36:28;;;;;;;0.43;0.43;;;;;;;1.98;73.72;92462.22;5092559;28;20027;-42
2021/04/06 03:38:58;;;;;;;1.05;1.05;;;;;;;1.98;73.90;92456.03;5092661;28;20077;-42
2021/04/06 03:41:26;;;;;;;0.95;0.95;;;;;;;1.92;73.95;92449.94;5092203;28;20069;-42
2021/04/06 03:43:52;;;;;;;0.68;0.68;;;;;;;1.76;74.47;92461.78;5092513;28;20077;-42
2021/04/06 03:46:26;;;;;;;0.50;0.50;;;;;;;1.79;74.16;92463.50;5092119;28;20721;-42
2021/04/06 03:48:52;;;;;;;1.98;0.75;;;;;;;1.82;74.04;92462.47;5092443;28;20043;-45
2021/04/06 03:51:28;;;;;;;0.82;0.55;;;;;;;1.87;73.20;92465.09;5092105;28;20475;-43
2021/04/06 03:53:54;;;;;;;0.55;0.55;;;;;;;1.42;74.28;92467.69;5092068;28;20039;-45
2021/04/06 03:56:28;;;;;;;0.52;0.52;;;;;;;1.47;74.70;92475.03;5091203;28;20159;-44
2021/04/06 03:58:57;;;;;;;0.30;0.30;;;;;;;1.74;73.77;92469.72;5092040;28;20556;-43
2021/04/06 04:01:22;;;;;;;0.50;0.50;;;;;;;1.66;73.16;92468.84;5091997;28;20536;-44
2021/04/06 04:03:52;;;;;;;0.57;0.57;;;;;;;1.61;74.52;92462.25;5090516;28;20044;-44
2021/04/06 04:06:29;;;;;;;0.20;0.20;;;;;;;1.57;74.81;92459.09;5092038;28;20082;-44
2021/04/06 04:08:54;;;;;;;0.70;0.70;;;;;;;1.26;74.89;92465.91;5092004;28;20020;-45
2021/04/06 04:11:21;;;;;;;3.70;3.50;;;;;;;1.01;75.89;92467.19;5091449;28;20081;-43
2021/04/06 04:13:47;;;;;;;10.77;8.25;;;;;;;1.14;75.77;92467.28;5091622;28;20520;-45
2021/04/06 04:16:12;;;;;;;3.25;3.05;;;;;;;0.99;76.22;92469.69;5091867;28;20028;-43
2021/04/06 04:18:38;;;;;;;1.95;1.85;;;;;;;1.11;76.49;92475.72;5091417;28;20419;-44
2021/04/06 04:21:04;;;;;;;2.55;2.42;;;;;;;1.29;75.72;92464.13;5091696;28;20024;-44
2021/04/06 04:23:30;;;;;;;0.60;0.60;;;;;;;1.08;75.68;92444.88;5091439;28;20059;-45
2021/04/06 04:25:55;;;;;;;0.25;0.25;;;;;;;1.22;76.30;92462.00;5091046;28;20059;-44
2021/04/06 04:28:21;;;;;;;1.52;1.42;;;;;;;1.29;75.75;92451.28;5090980;28;20055;-45
2021/04/06 04:30:53;;;;;;;2.17;1.23;;;;;;;1.05;76.00;92448.59;5075858;28;20032;-47
2021/04/06 04:33:19;;;;;;;0.35;0.35;;;;;;;1.24;76.42;92459.50;5071533;28;20044;-45
2021/04/06 04:35:44;;;;;;;0.38;0.38;;;;;;;1.40;75.87;92461.28;5071322;28;20028;-45
2021/04/06 04:38:10;;;;;;;0.30;0.30;;;;;;;1.33;75.59;92440.84;5070917;28;20033;-44
2021/04/06 04:40:39;;;;;;;1.05;0.47;;;;;;;1.21;76.07;92458.53;5070077;28;20027;-44
2021/04/06 04:43:04;;;;;;;0.38;0.38;;;;;;;1.10;77.13;92455.97;5071002;28;20041;-44
2021/04/06 04:45:30;;;;;;;1.33;0.80;;;;;;;1.26;77.22;92454.28;5070910;28;20032;-45
2021/04/06 04:47:55;;;;;;;0.52;0.52;;;;;;;1.20;76.53;92454.34;5071140;28;20020;-45
2021/04/06 04:50:22;;;;;;;0.40;0.40;;;;;;;1.22;77.38;92448.41;5070734;28;20032;-43
2021/04/06 04:52:48;;;;;;;0.90;0.90;;;;;;;1.39;76.45;92441.50;5070980;28;20024;-42
2021/04/06 04:55:15;;;;;;;0.30;0.30;;;;;;;1.68;75.66;92441.88;5070631;28;20036;-44
2021/04/06 04:57:42;;;;;;;0.75;0.73;;;;;;;1.79;75.48;92422.66;5070589;28;20031;-44
2021/04/06 05:00:08;;;;;;;0.25;0.25;;;;;;;1.95;74.63;92443.47;5070588;28;20347;-42
2021/04/06 05:02:34;;;;;;;0.80;0.80;;;;;;;1.97;74.65;92440.97;5070733;28;20028;-42
2021/04/06 05:04:59;;;;;;;1.05;1.05;;;;;;;1.99;75.13;92441.19;5069484;28;20086;-44
2021/04/06 05:07:25;;;;;;;0.40;0.40;;;;;;;2.05;74.92;92445.28;5070236;28;20020;-44
2021/04/06 05:09:50;;;;;;;0.68;0.68;;;;;;;2.26;74.29;92442.72;5087976;28;20032;-42
2021/04/06 05:12:16;;;;;;;1.27;0.95;;;;;;;2.28;74.27;92440.22;5090422;28;20024;-43
2021/04/06 05:14:41;;;;;;;0.25;0.25;;;;;;;2.38;73.30;92433.13;5090510;28;20123;-43
2021/04/06 05:17:07;;;;;;;0.60;0.52;;;;;;;2.49;73.66;92432.22;5090271;28;20039;-43
2021/04/06 05:19:32;;;;;;;0.98;0.98;;;;;;;2.56;73.04;92435.03;5090599;28;20027;-44
2021/04/06 05:21:58;;;;;;;1.75;1.73;;;;;;;2.67;72.18;92434.09;5090166;28;20051;-45
2021/04/06 05:24:23;;;;;;;1.63;1.58;;;;;;;2.87;71.90;92442.41;5089769;28;20035;-46
2021/04/06 05:26:49;;;;;;;1.55;1.45;;;;;;;2.91;72.24;92433.91;5088606;28;20089;-45
2021/04/06 05:29:14;;;;;;;0.55;0.50;;;;;;;3.15;71.14;92432.97;5086110;28;20077;-45
2021/04/06 05:31:40;;;;;;;0.55;0.55;;;;;;;3.38;70.49;92429.28;5088662;28;20481;-45
2021/04/06 05:34:06;;;;;;;1.38;0.95;;;;;;;3.68;69.34;92434.38;5088160;28;20197;-45
2021/04/06 05:36:32;;;;;;;0.30;0.30;;;;;;;3.97;68.74;92435.22;5070077;28;20043;-44
2021/04/06 05:38:58;;;;;;;1.85;1.30;;;;;;;4.49;67.50;92424.78;5069998;28;20028;-45
2021/04/06 05:41:24;;;;;;;0.90;0.90;;;;;;;5.06;65.52;92430.31;5074657;28;20020;-44
2021/04/06 05:43:59;;;;;;;1.45;1.35;;;;;;;5.46;64.29;92428.69;5085632;28;20024;-44
2021/04/06 05:46:26;;;;;;;1.98;1.58;;;;;;;5.82;62.80;92423.94;5087237;28;20024;-43
2021/04/06 05:48:52;;;;;;;0.38;0.38;;;;;;;6.15;60.96;92424.94;5088214;28;20411;-42
2021/04/06 05:51:18;;;;;;;0.88;0.88;;;;;;;6.02;61.02;92423.09;5089151;28;20024;-43
2021/04/06 05:53:43;;;;;;;1.27;0.93;;;;;;;6.26;61.12;92423.91;5088521;28;20035;-43
2021/04/06 05:56:09;;;;;;;2.30;2.20;;;;;;;6.77;59.83;92416.25;5089352;28;20027;-44
2021/04/06 05:58:34;;;;;;;1.95;1.27;;;;;;;6.91;59.53;92420.25;5090132;28;20020;-44
2021/04/06 06:01:00;;;;;;;2.35;1.98;;;;;;;7.64;58.59;92414.44;5089698;28;20027;-44
2021/04/06 06:03:25;;;;;;;2.10;2.00;;;;;;;8.55;56.03;92414.03;5089868;28;20024;-46
2021/04/06 06:05:51;;;;;;;1.73;1.60;;;;;;;9.40;52.98;92407.28;5089747;28;20030;-43
2021/04/06 06:08:18;;;;;;;1.33;1.33;;;;;;;10.36;51.22;92405.97;5089737;28;20032;-44
2021/04/06 06:10:43;;;;;;;0.65;0.65;;;;;;;11.23;48.75;92402.25;5089609;28;20044;-44
2021/04/06 06:13:15;;;;;;;1.00;1.00;;;;;;;11.48;46.49;92407.53;5089221;28;20164;-44
2021/04/06 06:15:41;;;;;;;0.50;0.50;;;;;;;11.51;46.22;92409.13;5089908;28;20071;-45
2021/04/06 06:18:06;;;;;;;0.10;0.10;;;;;;;11.19;46.40;92413.72;5088506;28;20052;-45
2021/04/06 06:20:33;;;;;;;0.30;0.30;;;;;;;12.07;44.43;92388.34;5089621;28;20032;-44
2021/04/06 06:23:18;;;;;;;1.27;0.98;;;;;;;13.07;41.03;92391.16;5077701;28;20032;-44
2021/04/06 06:26:02;;;;;;;0.17;0.17;;;;;;;13.41;40.40;92396.97;5069047;28;20108;-45
2021/04/06 06:28:28;;;;;;;0.85;0.85;;;;;;;14.41;37.73;92391.69;5067222;28;20051;-44
2021/04/06 06:30:53;;;;;;;0.43;0.43;;;;;;;14.99;36.68;92396.63;5066304;28;20021;-46
2021/04/06 06:33:27;;;;;;;1.75;0.40;;;;;;;15.18;35.51;92391.56;5067153;28;20055;-45
2021/04/06 06:35:54;;;;;;;0.60;0.60;;;;;;;15.73;34.92;92398.31;5077994;28;20028;-44
2021/04/06 06:38:24;;;;;;;0.57;0.57;;;;;;;15.54;34.33;92401.38;5087351;28;20032;-47
2021/04/06 06:40:52;;;;;;;1.05;0.65;;;;;;;14.53;36.38;92402.81;5087261;28;20035;-45
2021/04/06 06:43:21;;;;;;;1.02;1.02;;;;;;;14.61;36.38;92403.34;5087307;28;20043;-45
2021/04/06 06:45:49;;;;;;;1.42;1.17;;;;;;;13.57;38.29;92406.38;5071836;28;20515;-44
2021/04/06 06:48:27;;;;;;;0.68;0.32;;;;;;;13.82;37.76;92392.03;5067128;28;20028;-44
2021/04/06 06:50:53;;;;;;;0.13;0.13;;;;;;;14.03;38.60;92386.47;5066794;28;20024;-44
2021/04/06 06:53:41;;;;;;;0.52;0.52;;;;;;;15.25;37.52;92375.22;5067068;28;20170;-44
2021/04/06 06:56:09;;;;;;;0.10;0.10;;;;;;;16.89;34.01;92374.88;5067123;28;20595;-44
2021/04/06 06:58:36;;;;;;;0.22;0.22;;;;;;;16.88;32.52;92378.97;5066739;28;20270;-44
2021/04/06 07:01:02;;;;;;;0.45;0.45;;;;;;;17.41;32.88;92378.34;5066754;28;20455;-44
2021/04/06 07:03:28;;;;;;;0.68;0.55;;;;;;;17.59;30.64;92366.69;5067189;28;20035;-44
2021/04/06 07:05:54;;;;;;;0.20;0.20;;;;;;;16.67;32.19;92350.00;5070721;28;20029;-43
2021/04/06 07:08:34;;;;;;;0.38;0.25;;;;;;;17.77;31.18;92364.81;5075785;28;20389;-43
2021/04/06 07:11:00;;;;;;;0.55;0.55;;;;;;;17.94;30.81;92358.69;5090476;28;20052;-45
2021/04/06 07:13:31;;;;;;;0.30;0.30;;;;;;;19.02;29.00;92363.19;5090697;28;20039;-46
2021/04/06 07:15:58;;;;;;;0.30;0.30;;;;;;;19.63;28.45;92361.03;5090637;28;20112;-45
2021/04/06 07:18:26;;;;;;;0.20;0.20;;;;;;;19.98;26.72;92358.34;5090342;28;20085;-44
2021/04/06 07:20:56;;;;;;;0.35;0.35;;;;;;;19.88;26.79;92360.69;5090201;28;20036;-44
2021/04/06 07:23:35;;;;;;;0.20;0.20;;;;;;;19.55;27.42;92361.41;5090239;28;20051;-45
2021/04/06 07:26:03;;;;;;;0.28;0.28;;;;;;;20.61;25.37;92361.66;5089657;28;20400;-44
2021/04/06 07:28:29;;;;;;;0.20;0.20;;;;;;;21.18;24.75;92361.06;5090166;28;20036;-44
2021/04/06 07:30:55;;;;;;;0.85;0.85;;;;;;;20.76;24.82;92355.22;5088827;28;20047;-44
2021/04/06 07:33:21;;;;;;;0.43;0.43;;;;;;;20.16;25.64;92350.66;5090070;28;20028;-45
2021/04/06 07:35:47;;;;;;;0.38;0.38;;;;;;;20.18;25.96;92350.75;5090160;28;20466;-45
2021/04/06 07:38:12;;;;;;;0.35;0.35;;;;;;;21.23;25.02;92352.13;5089725;28;20024;-45
2021/04/06 07:40:38;;;;;;;0.95;0.55;;;;;;;21.63;24.01;92347.28;5089834;28;20020;-47
2021/04/06 07:43:05;;;;;;;0.10;0.10;;;;;;;20.84;25.36;92341.50;5090152;28;20028;-45
2021/04/06 07:45:30;;;;;;;0.77;0.65;;;;;;;21.44;24.86;92337.44;5078364;28;20529;-45
2021/04/06 07:47:56;;;;;;;0.40;0.40;;;;;;;20.92;24.70;92335.50;5078632;28;20028;-44
2021/04/06 07:50:42;;;;;;;1.02;0.88;;;;;;;20.59;25.31;92344.00;5090008;28;20102;-44
2021/04/06 07:53:19;;;;;;;1.27;0.68;;;;;;;20.11;25.89;92335.06;5089916;28;20220;-47
2021/04/06 07:55:45;;;;;;;0.43;0.43;;;;;;;19.74;27.22;92334.16;5089855;28;20028;-44
2021/04/06 07:58:10;;;;;;;0.75;0.75;;;;;;;20.32;26.20;92320.53;5089755;28;20751;-46
2021/04/06 08:00:49;;;;;;;0.93;0.30;;;;;;;20.13;26.28;92323.94;5088309;28;20039;-46
2021/04/06 08:03:50;;;;;;;0.65;0.47;;;;;;;20.35;26.15;92312.94;5089942;28;20038;-46
2021/04/06 08:06:23;;;;;;;0.65;0.65;;;;;;;20.71;25.81;92305.19;5087933;28;20416;-45
2021/04/06 08:08:48;;;;;;;0.68;0.68;;;;;;;20.75;26.24;92303.28;5089526;28;20401;-45
2021/04/06 08:11:14;;;;;;;0.25;0.25;;;;;;;21.72;24.94;92296.31;5089368;28;20050;-45
2021/04/06 08:13:41;;;;;;;0.47;0.47;;;;;;;22.73;23.14;92299.69;5089280;28;20523;-45
2021/04/06 08:16:14;;;;;;;0.80;0.43;;;;;;;21.87;24.61;92301.09;5087579;28;20432;-45
2021/04/06 08:18:54;;;;;;;2.50;0.88;;;;;;;22.70;23.50;92300.28;5088416;28;20103;-46
2021/04/06 08:21:22;;;;;;;0.30;0.30;;;;;;;22.90;23.65;92301.63;5086076;28;20050;-46
2021/04/06 08:23:48;;;;;;;;;;;;;;;22.56;23.89;92301.25;5086939;28;20443;-46
2021/04/06 08:26:34;;;;;;;1.35;1.00;;;;;;;23.44;22.86;92305.34;5088833;28;19908;-45
2021/04/06 08:29:24;;;;;;;0.57;0.57;;;;;;;24.06;21.33;92301.44;5088736;28;20377;-46
2021/04/06 08:32:12;;;;;;;0.43;0.43;;;;;;;23.59;21.40;92287.44;5088616;28;20020;-46
2021/04/06 08:34:51;;;;;;;0.43;0.43;;;;;;;23.61;22.35;92286.78;5089526;28;20108;-46
2021/04/06 08:37:19;;;;;;;1.45;1.35;;;;;;;23.30;21.81;92280.28;5089179;28;20099;-46
2021/04/06 08:39:45;;;;;;;0.10;0.10;;;;;;;24.34;21.39;92270.41;5091737;28;20434;-45
2021/04/06 08:42:16;;;;;;;0.47;0.47;;;;;;;25.18;21.04;92271.66;5090619;28;20060;-46
2021/04/06 08:44:46;;;;;;;0.17;0.17;;;;;;;24.40;20.89;92269.84;5084677;28;20531;-46
2021/04/06 08:47:47;;;;;;;2.30;1.23;;;;;;;24.05;21.96;92271.81;5070377;28;20038;-45
2021/04/06 08:50:39;;;;;;;0.30;0.30;;;;;;;23.82;23.17;92264.09;5044279;28;20518;-46
2021/04/06 08:53:06;;;;;;;0.57;0.20;;;;;;;23.85;21.83;92262.78;5079693;28;20054;-46
2021/04/06 08:55:31;;;;;;;3.03;1.08;;;;;;;24.86;21.03;92262.50;5088853;28;20081;-46
2021/04/06 08:57:58;;;;;;;0.50;0.50;;;;;;;24.63;22.67;92254.84;5089070;28;20036;-45
2021/04/06 09:00:24;;;;;;;0.85;0.32;;;;;;;25.63;21.37;92253.53;5087391;28;20500;-46
2021/04/06 09:03:01;;;;;;;1.27;0.60;;;;;;;26.37;19.32;92242.13;5088878;28;20016;-46
2021/04/06 09:05:30;;;;;;;0.30;0.30;;;;;;;26.91;18.46;92243.72;5088664;28;20043;-45
2021/04/06 09:07:55;;;;;;;1.15;0.68;;;;;;;26.13;19.42;92239.63;5089760;28;20016;-46
2021/04/06 09:10:20;;;;;;;0.57;0.57;;;;;;;26.05;18.90;92242.28;5086985;28;20062;-46
2021/04/06 09:12:50;;;;;;;0.43;0.43;;;;;;;26.18;19.93;92239.00;5089252;28;20024;-45
2021/04/06 09:15:19;;;;;;;0.43;0.43;;;;;;;26.67;19.14;92240.50;5088552;28;20032;-46
2021/04/06 09:17:45;;;;;;;0.30;0.30;;;;;;;26.76;18.37;92233.59;5087370;28;20089;-46
2021/04/06 09:20:13;;;;;;;0.45;0.45;;;;;;;26.21;19.44;92231.97;5088486;28;20028;-46
2021/04/06 09:22:40;;;;;;;0.28;0.28;;;;;;;26.23;18.90;92234.84;5089216;28;20028;-45
2021/04/06 09:25:19;;;;;;;0.08;0.08;;;;;;;25.86;19.80;92226.41;5088225;28;20031;-45
2021/04/06 09:27:56;;;;;;;0.73;0.73;;;;;;;24.75;21.41;92236.13;5076859;28;20021;-45
2021/04/06 09:30:34;;;;;;;0.10;0.10;;;;;;;24.92;21.44;92234.38;5083283;28;20101;-47
2021/04/06 09:33:05;;;;;;;0.35;0.35;;;;;;;24.82;20.44;92239.78;5087975;28;20035;-46
2021/04/06 09:35:32;;;;;;;0.28;0.28;;;;;;;24.76;20.41;92234.72;5085047;28;20028;-44
2021/04/06 09:37:58;;;;;;;0.40;0.38;;;;;;;25.66;20.02;92220.34;5087741;28;20034;-44
2021/04/06 09:40:35;;;;;;;0.47;0.47;;;;;;;24.70;20.45;92226.09;5088555;28;20032;-45
2021/04/06 09:43:01;;;;;;;0.40;0.40;;;;;;;24.57;20.78;92215.22;5088091;28;20510;-44
2021/04/06 09:45:28;;;;;;;0.22;0.22;;;;;;;24.77;21.26;92207.94;5074346;28;20512;-43
2021/04/06 09:47:53;;;;;;;0.22;0.22;;;;;;;24.35;22.23;92201.31;5066165;28;20047;-45
2021/04/06 09:50:19;;;;;;;0.20;0.20;;;;;;;24.02;22.97;92205.44;5066819;28;20521;-45
2021/04/06 09:52:46;;;;;;;0.82;0.82;;;;;;;23.57;22.24;92199.31;5067635;28;20027;-44
2021/04/06 09:55:12;;;;;;;0.43;0.20;;;;;;;23.73;23.62;92194.84;5069353;28;20662;-44
2021/04/06 09:57:46;;;;;;;0.40;0.40;;;;;;;23.87;22.69;92192.38;5069650;28;20024;-44
2021/04/06 10:00:15;;;;;;;0.40;0.40;;;;;;;23.31;23.07;92185.97;5089266;28;20027;-45
2021/04/06 10:02:42;;;;;;;;;;;;;;;23.92;22.75;92179.81;5090413;28;20115;-44
2021/04/06 10:05:18;;;;;;;0.60;0.60;;;;;;;24.36;22.15;92185.81;5082795;28;19923;-44
2021/04/06 10:07:48;;;;;;;0.30;0.30;;;;;;;23.91;22.71;92177.66;5087193;28;20027;-44
2021/04/06 10:10:19;;;;;;;2.45;1.80;;;;;;;24.33;23.28;92170.22;5067175;28;20048;-45
2021/04/06 10:12:45;;;;;;;0.98;0.60;;;;;;;24.28;21.81;92148.94;5082014;28;20040;-45
2021/04/06 10:15:14;;;;;;;0.43;0.40;;;;;;;24.60;21.57;92166.59;5088114;28;20039;-47
2021/04/06 10:17:41;;;;;;;0.75;0.30;;;;;;;25.04;21.55;92149.91;5086647;28;20028;-44
2021/04/06 10:20:07;;;;;;;0.00;0.00;;;;;;;25.64;22.88;92144.00;5087798;28;20150;-44
2021/04/06 10:23:02;;;;;;;0.68;0.57;;;;;;;26.84;20.07;92131.75;5087136;28;20028;-45
2021/04/06 10:25:40;;;;;;;1.33;0.47;;;;;;;27.48;19.89;92120.47;5062496;28;20098;-45
2021/04/06 10:28:09;;;;;;;1.15;0.35;;;;;;;28.49;17.99;92119.22;5066789;28;20024;-43
2021/04/06 10:30:41;;;;;;;0.40;0.40;;;;;;;28.25;19.08;92113.38;5067488;28;20104;-45
2021/04/06 10:33:15;;;;;;;0.38;0.35;;;;;;;28.86;20.32;92108.09;5067336;28;20028;-44
2021/04/06 10:36:05;;;;;;;0.17;0.17;;;;;;;29.64;18.17;92099.88;5067543;28;20090;-45
2021/04/06 10:38:37;;;;;;;1.20;1.02;;;;;;;29.68;17.09;92088.50;5070026;28;20052;-45
2021/04/06 10:41:11;;;;;;;0.82;0.45;;;;;;;29.44;18.05;92087.72;5070041;28;20098;-44
2021/04/06 10:43:44;;;;;;;0.25;0.25;;;;;;;28.78;17.21;92083.22;5071430;28;20116;-45
2021/04/06 10:46:12;;;;;;;0.38;0.25;;;;;;;27.81;18.47;92073.28;5088458;28;20078;-44
2021/04/06 10:48:40;;;;;;;0.43;0.43;;;;;;;26.23;20.43;92058.69;5085088;28;20024;-44
2021/04/06 10:51:10;;;;;;;0.50;0.50;;;;;;;25.64;22.30;92050.72;5087582;28;20085;-45
2021/04/06 10:53:45;;;;;;;0.47;0.47;;;;;;;26.39;20.89;92041.94;5080028;28;20568;-44
2021/04/06 10:56:18;;;;;;;0.10;0.10;;;;;;;27.21;19.66;92039.38;5087608;28;20073;-43
2021/04/06 10:58:54;;;;;;;2.40;0.93;;;;;;;27.77;18.08;92037.09;5084940;28;20058;-44
2021/04/06 11:01:44;;;;;;;0.50;0.50;;;;;;;26.58;18.99;92023.06;5075658;28;20115;-45
2021/04/06 11:04:15;;;;;;;0.55;0.22;;;;;;;25.47;18.52;92030.66;5082160;28;20102;-46
2021/04/06 11:06:43;;;;;;;1.65;1.10;;;;;;;25.61;20.44;92024.53;5079296;28;20023;-42
2021/04/06 11:09:16;;;;;;;0.22;0.22;;;;;;;26.34;20.48;92017.81;5080481;28;20020;-43
2021/04/06 11:11:42;;;;;;;0.85;0.82;;;;;;;27.16;18.80;92017.38;5078709;28;20090;-42
2021/04/06 11:14:13;;;;;;;0.65;0.65;;;;;;;27.10;18.44;92008.81;5080271;28;20024;-42
2021/04/06 11:16:40;;;;;;;2.30;1.17;;;;;;;27.09;18.91;92004.56;5078984;28;20048;-42
2021/04/06 11:19:13;;;;;;;0.47;0.47;;;;;;;26.36;20.41;92000.16;5078533;28;20635;-41
2021/04/06 11:21:41;;;;;;;0.20;0.20;;;;;;;24.49;21.71;91992.84;5081940;28;20052;-41
2021/04/06 11:24:07;;;;;;;0.17;0.17;;;;;;;23.29;22.26;91999.31;5075565;28;20024;-41
2021/04/06 11:26:33;;;;;;;0.43;0.43;;;;;;;23.84;23.00;91990.03;5078358;28;20027;-41
2021/04/06 11:28:59;;;;;;;4.75;0.80;;;;;;;24.38;23.67;91988.38;5079092;28;20411;-41
2021/04/06 11:31:25;;;;;;;1.13;0.73;;;;;;;24.57;22.33;91981.72;5081316;28;20580;-41
2021/04/06 11:33:51;;;;;;;5.35;0.68;;;;;;;24.42;21.28;91985.66;5078388;28;20028;-41
2021/04/06 11:36:16;;;;;;;0.20;0.20;;;;;;;23.06;21.50;91983.97;5078827;28;20019;-42
2021/04/06 11:38:42;;;;;;;0.13;0.13;;;;;;;21.72;23.76;91989.41;5079458;28;20073;-41
2021/04/06 11:41:08;;;;;;;0.20;0.20;;;;;;;20.46;25.19;91977.59;5076559;28;20085;-41
2021/04/06 11:43:34;;;;;;;0.20;0.10;;;;;;;19.87;26.19;91983.91;5082079;28;20024;-40
2021/04/06 11:45:59;;;;;;;0.40;0.40;;;;;;;20.16;27.59;91977.25;5078393;28;20637;-41
2021/04/06 11:48:25;;;;;;;0.30;0.30;;;;;;;20.37;25.19;91979.41;5068088;28;20737;-41
2021/04/06 11:50:50;;;;;;;0.52;0.20;;;;;;;20.35;24.90;91971.66;5068411;28;20512;-40